sensor_id;sensor_type;location;lat;lon;timestamp;pressure;altitude;pressure_sealevel;temperature
31528;BMP280;10206;48.012;10.030;2023-02-08T00:01:22;96400.44;;;-1.99
31528;BMP280;10206;48.012;10.030;2023-02-08T00:03:49;96396.84;;;-2.27
31528;BMP280;10206;48.012;10.030;2023-02-08T00:06:15;96391.66;;;-2.43
31528;BMP280;10206;48.012;10.030;2023-02-08T00:08:42;96400.47;;;-2.55
31528;BMP280;10206;48.012;10.030;2023-02-08T00:11:08;96387.75;;;-2.30
31528;BMP280;10206;48.012;10.030;2023-02-08T00:13:36;96390.63;;;-2.24
31528;BMP280;10206;48.012;10.030;2023-02-08T00:16:03;96385.63;;;-2.35
31528;BMP280;10206;48.012;10.030;2023-02-08T00:18:29;96383.03;;;-2.26
31528;BMP280;10206;48.012;10.030;2023-02-08T00:20:55;96373.81;;;-2.46
31528;BMP280;10206;48.012;10.030;2023-02-08T00:23:23;96383.41;;;-2.36
31528;BMP280;10206;48.012;10.030;2023-02-08T00:25:49;96376.31;;;-2.30
31528;BMP280;10206;48.012;10.030;2023-02-08T00:28:16;96370.44;;;-2.25
31528;BMP280;10206;48.012;10.030;2023-02-08T00:30:43;96373.91;;;-2.16
31528;BMP280;10206;48.012;10.030;2023-02-08T00:33:09;96377.19;;;-2.12
31528;BMP280;10206;48.012;10.030;2023-02-08T00:35:36;96367.38;;;-2.36
31528;BMP280;10206;48.012;10.030;2023-02-08T00:38:02;96364.66;;;-2.24
31528;BMP280;10206;48.012;10.030;2023-02-08T00:40:28;96366.34;;;-2.17
31528;BMP280;10206;48.012;10.030;2023-02-08T00:42:54;96367.75;;;-2.25
31528;BMP280;10206;48.012;10.030;2023-02-08T00:45:20;96359.63;;;-2.22
31528;BMP280;10206;48.012;10.030;2023-02-08T00:47:46;96359.91;;;-2.20
31528;BMP280;10206;48.012;10.030;2023-02-08T00:50:12;96358.69;;;-2.28
31528;BMP280;10206;48.012;10.030;2023-02-08T00:52:39;96355.81;;;-2.12
31528;BMP280;10206;48.012;10.030;2023-02-08T00:55:05;96359.78;;;-2.16
31528;BMP280;10206;48.012;10.030;2023-02-08T00:57:32;96357.28;;;-2.32
31528;BMP280;10206;48.012;10.030;2023-02-08T00:59:58;96345.41;;;-2.31
31528;BMP280;10206;48.012;10.030;2023-02-08T01:02:24;96348.00;;;-2.28
31528;BMP280;10206;48.012;10.030;2023-02-08T01:04:51;96352.22;;;-2.18
31528;BMP280;10206;48.012;10.030;2023-02-08T01:07:17;96354.84;;;-2.27
31528;BMP280;10206;48.012;10.030;2023-02-08T01:09:43;96349.09;;;-2.38
31528;BMP280;10206;48.012;10.030;2023-02-08T01:12:09;96344.44;;;-2.25
31528;BMP280;10206;48.012;10.030;2023-02-08T01:14:37;96352.69;;;-2.32
31528;BMP280;10206;48.012;10.030;2023-02-08T01:17:03;96345.13;;;-2.33
31528;BMP280;10206;48.012;10.030;2023-02-08T01:19:29;96347.47;;;-2.35
31528;BMP280;10206;48.012;10.030;2023-02-08T01:21:56;96341.38;;;-2.23
31528;BMP280;10206;48.012;10.030;2023-02-08T01:24:22;96348.75;;;-2.27
31528;BMP280;10206;48.012;10.030;2023-02-08T01:26:48;96347.03;;;-2.34
31528;BMP280;10206;48.012;10.030;2023-02-08T01:29:14;96342.25;;;-2.39
31528;BMP280;10206;48.012;10.030;2023-02-08T01:31:41;96342.75;;;-2.31
31528;BMP280;10206;48.012;10.030;2023-02-08T01:34:09;96344.22;;;-2.52
31528;BMP280;10206;48.012;10.030;2023-02-08T01:36:36;96346.91;;;-2.30
31528;BMP280;10206;48.012;10.030;2023-02-08T01:39:04;96344.06;;;-2.58
31528;BMP280;10206;48.012;10.030;2023-02-08T01:41:39;96336.09;;;-2.48
31528;BMP280;10206;48.012;10.030;2023-02-08T01:46:44;96340.91;;;-2.43
31528;BMP280;10206;48.012;10.030;2023-02-08T01:49:20;96340.03;;;-2.40
31528;BMP280;10206;48.012;10.030;2023-02-08T01:51:59;96334.94;;;-2.47
31528;BMP280;10206;48.012;10.030;2023-02-08T01:54:33;96338.97;;;-2.43
31528;BMP280;10206;48.012;10.030;2023-02-08T01:57:00;96335.91;;;-2.32
31528;BMP280;10206;48.012;10.030;2023-02-08T01:59:42;96333.19;;;-2.41
31528;BMP280;10206;48.012;10.030;2023-02-08T02:02:12;96333.06;;;-2.60
31528;BMP280;10206;48.012;10.030;2023-02-08T02:04:39;96332.25;;;-2.47
31528;BMP280;10206;48.012;10.030;2023-02-08T02:07:06;96328.88;;;-2.39
31528;BMP280;10206;48.012;10.030;2023-02-08T02:12:08;96327.47;;;-2.52
31528;BMP280;10206;48.012;10.030;2023-02-08T02:14:36;96325.75;;;-2.46
31528;BMP280;10206;48.012;10.030;2023-02-08T02:17:03;96329.81;;;-2.54
31528;BMP280;10206;48.012;10.030;2023-02-08T02:20:01;96322.75;;;-2.48
31528;BMP280;10206;48.012;10.030;2023-02-08T02:27:39;96312.63;;;-2.53
31528;BMP280;10206;48.012;10.030;2023-02-08T02:36:07;96301.06;;;-2.50
31528;BMP280;10206;48.012;10.030;2023-02-08T02:41:32;96303.69;;;-2.60
31528;BMP280;10206;48.012;10.030;2023-02-08T02:44:57;96297.00;;;-2.77
31528;BMP280;10206;48.012;10.030;2023-02-08T02:47:42;96306.41;;;-2.72
31528;BMP280;10206;48.012;10.030;2023-02-08T02:50:27;96306.13;;;-2.52
31528;BMP280;10206;48.012;10.030;2023-02-08T02:55:41;96299.00;;;-2.68
31528;BMP280;10206;48.012;10.030;2023-02-08T02:58:10;96306.25;;;-2.56
31528;BMP280;10206;48.012;10.030;2023-02-08T03:00:38;96301.47;;;-2.74
31528;BMP280;10206;48.012;10.030;2023-02-08T03:03:05;96294.28;;;-2.64
31528;BMP280;10206;48.012;10.030;2023-02-08T03:05:32;96294.09;;;-2.70
31528;BMP280;10206;48.012;10.030;2023-02-08T03:10:52;96298.88;;;-2.65
31528;BMP280;10206;48.012;10.030;2023-02-08T03:13:31;96292.69;;;-2.62
31528;BMP280;10206;48.012;10.030;2023-02-08T03:22:14;96290.97;;;-2.90
31528;BMP280;10206;48.012;10.030;2023-02-08T03:30:19;96295.47;;;-2.99
31528;BMP280;10206;48.012;10.030;2023-02-08T03:33:02;96300.63;;;-3.05
31528;BMP280;10206;48.012;10.030;2023-02-08T03:35:54;96299.13;;;-3.06
31528;BMP280;10206;48.012;10.030;2023-02-08T03:38:42;96296.28;;;-3.24
31528;BMP280;10206;48.012;10.030;2023-02-08T03:41:16;96299.16;;;-3.19
31528;BMP280;10206;48.012;10.030;2023-02-08T03:43:46;96292.31;;;-3.07
31528;BMP280;10206;48.012;10.030;2023-02-08T03:46:23;96294.88;;;-3.16
31528;BMP280;10206;48.012;10.030;2023-02-08T03:49:03;96287.03;;;-2.98
31528;BMP280;10206;48.012;10.030;2023-02-08T03:51:31;96285.59;;;-3.12
31528;BMP280;10206;48.012;10.030;2023-02-08T03:54:02;96288.81;;;-3.29
31528;BMP280;10206;48.012;10.030;2023-02-08T03:56:56;96283.34;;;-3.13
31528;BMP280;10206;48.012;10.030;2023-02-08T03:59:30;96275.72;;;-3.02
31528;BMP280;10206;48.012;10.030;2023-02-08T04:02:02;96272.63;;;-3.00
31528;BMP280;10206;48.012;10.030;2023-02-08T04:04:34;96269.22;;;-3.01
31528;BMP280;10206;48.012;10.030;2023-02-08T04:07:01;96266.69;;;-3.04
31528;BMP280;10206;48.012;10.030;2023-02-08T04:09:28;96264.44;;;-3.06
31528;BMP280;10206;48.012;10.030;2023-02-08T04:11:54;96257.09;;;-3.15
31528;BMP280;10206;48.012;10.030;2023-02-08T04:14:20;96261.34;;;-3.04
31528;BMP280;10206;48.012;10.030;2023-02-08T04:16:46;96253.56;;;-3.12
31528;BMP280;10206;48.012;10.030;2023-02-08T04:19:12;96255.38;;;-3.09
31528;BMP280;10206;48.012;10.030;2023-02-08T04:21:38;96267.16;;;-3.19
31528;BMP280;10206;48.012;10.030;2023-02-08T04:24:04;96252.94;;;-3.28
31528;BMP280;10206;48.012;10.030;2023-02-08T04:26:31;96265.28;;;-3.09
31528;BMP280;10206;48.012;10.030;2023-02-08T04:28:57;96256.50;;;-3.31
31528;BMP280;10206;48.012;10.030;2023-02-08T04:31:23;96257.06;;;-3.36
31528;BMP280;10206;48.012;10.030;2023-02-08T04:33:49;96256.13;;;-3.08
31528;BMP280;10206;48.012;10.030;2023-02-08T04:36:15;96256.41;;;-3.40
31528;BMP280;10206;48.012;10.030;2023-02-08T04:38:41;96269.00;;;-3.07
31528;BMP280;10206;48.012;10.030;2023-02-08T04:41:07;96257.84;;;-3.14
31528;BMP280;10206;48.012;10.030;2023-02-08T04:43:33;96260.06;;;-3.13
31528;BMP280;10206;48.012;10.030;2023-02-08T04:46:00;96268.97;;;-2.94
31528;BMP280;10206;48.012;10.030;2023-02-08T04:48:26;96266.78;;;-3.08
31528;BMP280;10206;48.012;10.030;2023-02-08T04:50:56;96262.75;;;-3.25
31528;BMP280;10206;48.012;10.030;2023-02-08T04:53:23;96257.47;;;-3.03
31528;BMP280;10206;48.012;10.030;2023-02-08T04:55:50;96251.97;;;-3.09
31528;BMP280;10206;48.012;10.030;2023-02-08T04:58:16;96255.94;;;-3.14
31528;BMP280;10206;48.012;10.030;2023-02-08T05:00:42;96256.25;;;-3.24
31528;BMP280;10206;48.012;10.030;2023-02-08T05:03:08;96255.31;;;-3.30
31528;BMP280;10206;48.012;10.030;2023-02-08T05:05:35;96248.25;;;-3.24
31528;BMP280;10206;48.012;10.030;2023-02-08T05:08:02;96245.25;;;-3.26
31528;BMP280;10206;48.012;10.030;2023-02-08T05:10:28;96240.56;;;-3.22
31528;BMP280;10206;48.012;10.030;2023-02-08T05:12:54;96241.22;;;-3.18
31528;BMP280;10206;48.012;10.030;2023-02-08T05:15:20;96228.28;;;-3.20
31528;BMP280;10206;48.012;10.030;2023-02-08T05:17:46;96242.91;;;-3.24
31528;BMP280;10206;48.012;10.030;2023-02-08T05:20:14;96228.69;;;-3.56
31528;BMP280;10206;48.012;10.030;2023-02-08T05:22:40;96233.28;;;-3.43
31528;BMP280;10206;48.012;10.030;2023-02-08T05:25:06;96227.78;;;-3.27
31528;BMP280;10206;48.012;10.030;2023-02-08T05:27:33;96229.88;;;-3.22
31528;BMP280;10206;48.012;10.030;2023-02-08T05:30:00;96226.22;;;-3.37
31528;BMP280;10206;48.012;10.030;2023-02-08T05:32:26;96226.41;;;-3.32
31528;BMP280;10206;48.012;10.030;2023-02-08T05:34:53;96229.50;;;-3.33
31528;BMP280;10206;48.012;10.030;2023-02-08T05:37:19;96238.00;;;-3.26
31528;BMP280;10206;48.012;10.030;2023-02-08T05:39:45;96242.84;;;-3.21
31528;BMP280;10206;48.012;10.030;2023-02-08T05:42:11;96251.28;;;-3.47
31528;BMP280;10206;48.012;10.030;2023-02-08T05:44:37;96246.59;;;-3.43
31528;BMP280;10206;48.012;10.030;2023-02-08T05:47:03;96250.59;;;-3.26
31528;BMP280;10206;48.012;10.030;2023-02-08T05:49:29;96250.28;;;-3.28
31528;BMP280;10206;48.012;10.030;2023-02-08T05:51:55;96252.09;;;-3.25
31528;BMP280;10206;48.012;10.030;2023-02-08T05:54:21;96257.00;;;-3.24
31528;BMP280;10206;48.012;10.030;2023-02-08T05:56:48;96250.34;;;-3.41
31528;BMP280;10206;48.012;10.030;2023-02-08T05:59:14;96259.59;;;-3.45
31528;BMP280;10206;48.012;10.030;2023-02-08T06:01:40;96249.69;;;-3.45
31528;BMP280;10206;48.012;10.030;2023-02-08T06:04:06;96256.31;;;-3.37
31528;BMP280;10206;48.012;10.030;2023-02-08T06:06:32;96256.84;;;-3.55
31528;BMP280;10206;48.012;10.030;2023-02-08T06:08:58;96259.97;;;-3.69
31528;BMP280;10206;48.012;10.030;2023-02-08T06:11:24;96253.97;;;-3.73
31528;BMP280;10206;48.012;10.030;2023-02-08T06:13:50;96266.66;;;-3.64
31528;BMP280;10206;48.012;10.030;2023-02-08T06:16:16;96269.53;;;-3.59
31528;BMP280;10206;48.012;10.030;2023-02-08T06:18:42;96270.59;;;-3.56
31528;BMP280;10206;48.012;10.030;2023-02-08T06:21:08;96267.22;;;-3.69
31528;BMP280;10206;48.012;10.030;2023-02-08T06:23:34;96271.59;;;-3.63
31528;BMP280;10206;48.012;10.030;2023-02-08T06:26:01;96274.97;;;-3.75
31528;BMP280;10206;48.012;10.030;2023-02-08T06:28:27;96272.44;;;-3.78
31528;BMP280;10206;48.012;10.030;2023-02-08T06:30:53;96268.69;;;-3.81
31528;BMP280;10206;48.012;10.030;2023-02-08T06:33:19;96263.78;;;-3.82
31528;BMP280;10206;48.012;10.030;2023-02-08T06:35:46;96274.25;;;-3.63
31528;BMP280;10206;48.012;10.030;2023-02-08T06:38:13;96267.09;;;-3.66
31528;BMP280;10206;48.012;10.030;2023-02-08T06:40:39;96270.50;;;-3.65
31528;BMP280;10206;48.012;10.030;2023-02-08T06:43:05;96271.47;;;-3.59
31528;BMP280;10206;48.012;10.030;2023-02-08T06:45:31;96266.63;;;-3.51
31528;BMP280;10206;48.012;10.030;2023-02-08T06:47:57;96267.50;;;-3.55
31528;BMP280;10206;48.012;10.030;2023-02-08T06:50:24;96265.28;;;-3.56
31528;BMP280;10206;48.012;10.030;2023-02-08T06:52:50;96268.25;;;-3.79
31528;BMP280;10206;48.012;10.030;2023-02-08T06:55:16;96270.28;;;-3.71
31528;BMP280;10206;48.012;10.030;2023-02-08T06:57:42;96271.03;;;-3.45
31528;BMP280;10206;48.012;10.030;2023-02-08T07:00:09;96274.44;;;-3.57
31528;BMP280;10206;48.012;10.030;2023-02-08T07:02:35;96274.03;;;-3.56
31528;BMP280;10206;48.012;10.030;2023-02-08T07:05:01;96268.06;;;-3.60
31528;BMP280;10206;48.012;10.030;2023-02-08T07:07:27;96277.56;;;-3.46
31528;BMP280;10206;48.012;10.030;2023-02-08T07:09:53;96271.56;;;-3.37
31528;BMP280;10206;48.012;10.030;2023-02-08T07:12:19;96274.00;;;-3.30
31528;BMP280;10206;48.012;10.030;2023-02-08T07:14:45;96275.59;;;-3.20
31528;BMP280;10206;48.012;10.030;2023-02-08T07:17:12;96277.22;;;-3.01
31528;BMP280;10206;48.012;10.030;2023-02-08T07:19:39;96284.47;;;-2.89
31528;BMP280;10206;48.012;10.030;2023-02-08T07:22:05;96279.19;;;-2.80
31528;BMP280;10206;48.012;10.030;2023-02-08T07:24:39;96283.78;;;-2.80
31528;BMP280;10206;48.012;10.030;2023-02-08T07:27:07;96277.44;;;-2.74
31528;BMP280;10206;48.012;10.030;2023-02-08T07:29:33;96280.38;;;-2.37
31528;BMP280;10206;48.012;10.030;2023-02-08T07:32:00;96282.81;;;-2.30
31528;BMP280;10206;48.012;10.030;2023-02-08T07:34:29;96283.13;;;-2.28
31528;BMP280;10206;48.012;10.030;2023-02-08T07:36:56;96282.66;;;-2.05
31528;BMP280;10206;48.012;10.030;2023-02-08T07:39:23;96284.72;;;-2.00
31528;BMP280;10206;48.012;10.030;2023-02-08T07:41:49;96283.25;;;-1.61
31528;BMP280;10206;48.012;10.030;2023-02-08T07:44:15;96280.38;;;-1.85
31528;BMP280;10206;48.012;10.030;2023-02-08T07:46:41;96273.00;;;-1.72
31528;BMP280;10206;48.012;10.030;2023-02-08T07:49:08;96285.38;;;-1.56
31528;BMP280;10206;48.012;10.030;2023-02-08T07:51:34;96281.41;;;-1.42
31528;BMP280;10206;48.012;10.030;2023-02-08T07:54:00;96268.91;;;-1.36
31528;BMP280;10206;48.012;10.030;2023-02-08T07:56:26;96281.78;;;-0.95
31528;BMP280;10206;48.012;10.030;2023-02-08T07:58:52;96279.09;;;-1.04
31528;BMP280;10206;48.012;10.030;2023-02-08T08:01:18;96277.00;;;-1.09
31528;BMP280;10206;48.012;10.030;2023-02-08T08:03:44;96272.53;;;-0.85
31528;BMP280;10206;48.012;10.030;2023-02-08T08:06:10;96276.25;;;-0.82
31528;BMP280;10206;48.012;10.030;2023-02-08T08:08:36;96270.28;;;-1.32
31528;BMP280;10206;48.012;10.030;2023-02-08T08:11:02;96288.63;;;-0.94
31528;BMP280;10206;48.012;10.030;2023-02-08T08:13:28;96287.13;;;-1.13
31528;BMP280;10206;48.012;10.030;2023-02-08T08:15:54;96290.66;;;-0.53
31528;BMP280;10206;48.012;10.030;2023-02-08T08:18:21;96291.56;;;-0.56
31528;BMP280;10206;48.012;10.030;2023-02-08T08:20:47;96293.81;;;-0.63
31528;BMP280;10206;48.012;10.030;2023-02-08T08:23:13;96290.00;;;-1.47
31528;BMP280;10206;48.012;10.030;2023-02-08T08:25:41;96287.56;;;-1.24
31528;BMP280;10206;48.012;10.030;2023-02-08T08:28:07;96299.31;;;-0.85
31528;BMP280;10206;48.012;10.030;2023-02-08T08:30:33;96292.75;;;-0.47
31528;BMP280;10206;48.012;10.030;2023-02-08T08:32:59;96287.06;;;-0.40
31528;BMP280;10206;48.012;10.030;2023-02-08T08:35:25;96290.38;;;-0.45
31528;BMP280;10206;48.012;10.030;2023-02-08T08:37:51;96286.63;;;-0.21
31528;BMP280;10206;48.012;10.030;2023-02-08T08:40:17;96292.00;;;-0.30
31528;BMP280;10206;48.012;10.030;2023-02-08T08:42:43;96288.88;;;-0.46
31528;BMP280;10206;48.012;10.030;2023-02-08T08:45:10;96284.41;;;-0.40
31528;BMP280;10206;48.012;10.030;2023-02-08T08:47:36;96280.56;;;-0.48
31528;BMP280;10206;48.012;10.030;2023-02-08T08:50:02;96280.59;;;0.03
31528;BMP280;10206;48.012;10.030;2023-02-08T08:52:28;96278.31;;;0.10
31528;BMP280;10206;48.012;10.030;2023-02-08T08:54:54;96272.75;;;-0.10
31528;BMP280;10206;48.012;10.030;2023-02-08T08:57:21;96277.25;;;0.17
31528;BMP280;10206;48.012;10.030;2023-02-08T08:59:47;96277.88;;;0.12
31528;BMP280;10206;48.012;10.030;2023-02-08T09:02:14;96274.53;;;0.26
31528;BMP280;10206;48.012;10.030;2023-02-08T09:04:40;96278.03;;;0.08
31528;BMP280;10206;48.012;10.030;2023-02-08T09:07:07;96278.53;;;0.54
31528;BMP280;10206;48.012;10.030;2023-02-08T09:09:34;96266.09;;;0.33
31528;BMP280;10206;48.012;10.030;2023-02-08T09:12:00;96279.53;;;0.33
31528;BMP280;10206;48.012;10.030;2023-02-08T09:14:26;96279.75;;;0.20
31528;BMP280;10206;48.012;10.030;2023-02-08T09:16:52;96278.84;;;0.23
31528;BMP280;10206;48.012;10.030;2023-02-08T09:19:19;96276.31;;;0.76
31528;BMP280;10206;48.012;10.030;2023-02-08T09:21:45;96272.63;;;0.17
31528;BMP280;10206;48.012;10.030;2023-02-08T09:24:11;96269.75;;;-0.12
31528;BMP280;10206;48.012;10.030;2023-02-08T09:26:38;96274.44;;;0.11
31528;BMP280;10206;48.012;10.030;2023-02-08T09:29:05;96278.69;;;0.27
31528;BMP280;10206;48.012;10.030;2023-02-08T09:31:33;96270.97;;;-0.22
31528;BMP280;10206;48.012;10.030;2023-02-08T09:34:04;96280.38;;;0.39
31528;BMP280;10206;48.012;10.030;2023-02-08T09:36:35;96274.56;;;0.88
31528;BMP280;10206;48.012;10.030;2023-02-08T09:39:07;96276.69;;;0.36
31528;BMP280;10206;48.012;10.030;2023-02-08T09:46:56;96270.78;;;0.80
31528;BMP280;10206;48.012;10.030;2023-02-08T09:52:26;96269.06;;;0.68
31528;BMP280;10206;48.012;10.030;2023-02-08T09:54:57;96278.88;;;0.71
31528;BMP280;10206;48.012;10.030;2023-02-08T09:57:28;96270.59;;;1.22
31528;BMP280;10206;48.012;10.030;2023-02-08T09:59:59;96272.34;;;1.39
31528;BMP280;10206;48.012;10.030;2023-02-08T10:02:28;96278.28;;;1.14
31528;BMP280;10206;48.012;10.030;2023-02-08T10:07:30;96281.63;;;1.24
31528;BMP280;10206;48.012;10.030;2023-02-08T10:10:03;96279.53;;;1.04
31528;BMP280;10206;48.012;10.030;2023-02-08T10:12:55;96279.53;;;1.04
31528;BMP280;10206;48.012;10.030;2023-02-08T10:15:35;96275.00;;;1.78
31528;BMP280;10206;48.012;10.030;2023-02-08T10:19:02;96270.75;;;2.06
31528;BMP280;10206;48.012;10.030;2023-02-08T10:32:05;96264.59;;;2.20
31528;BMP280;10206;48.012;10.030;2023-02-08T10:34:47;96264.13;;;2.22
31528;BMP280;10206;48.012;10.030;2023-02-08T10:37:18;96267.03;;;2.99
31528;BMP280;10206;48.012;10.030;2023-02-08T10:39:44;96256.22;;;2.53
31528;BMP280;10206;48.012;10.030;2023-02-08T10:42:14;96262.22;;;2.42
31528;BMP280;10206;48.012;10.030;2023-02-08T10:45:04;96250.50;;;2.86
31528;BMP280;10206;48.012;10.030;2023-02-08T10:47:59;96250.31;;;2.95
31528;BMP280;10206;48.012;10.030;2023-02-08T10:50:38;96258.88;;;3.39
31528;BMP280;10206;48.012;10.030;2023-02-08T10:53:05;96251.91;;;2.81
31528;BMP280;10206;48.012;10.030;2023-02-08T10:55:37;96259.78;;;3.62
31528;BMP280;10206;48.012;10.030;2023-02-08T10:58:06;96253.63;;;3.04
31528;BMP280;10206;48.012;10.030;2023-02-08T11:00:37;96252.22;;;3.35
31528;BMP280;10206;48.012;10.030;2023-02-08T11:03:25;96246.63;;;3.38
31528;BMP280;10206;48.012;10.030;2023-02-08T11:05:52;96243.13;;;3.32
31528;BMP280;10206;48.012;10.030;2023-02-08T11:08:25;96240.72;;;3.14
31528;BMP280;10206;48.012;10.030;2023-02-08T11:13:39;96233.13;;;3.69
31528;BMP280;10206;48.012;10.030;2023-02-08T11:16:09;96248.97;;;3.87
31528;BMP280;10206;48.012;10.030;2023-02-08T11:18:56;96238.59;;;3.80
31528;BMP280;10206;48.012;10.030;2023-02-08T11:21:38;96235.31;;;4.50
31528;BMP280;10206;48.012;10.030;2023-02-08T11:24:29;96234.97;;;3.89
31528;BMP280;10206;48.012;10.030;2023-02-08T11:26:58;96246.88;;;3.71
31528;BMP280;10206;48.012;10.030;2023-02-08T11:29:28;96240.38;;;3.89
31528;BMP280;10206;48.012;10.030;2023-02-08T11:34:36;96227.44;;;3.36
31528;BMP280;10206;48.012;10.030;2023-02-08T11:37:20;96228.94;;;3.37
31528;BMP280;10206;48.012;10.030;2023-02-08T11:40:14;96223.09;;;3.70
31528;BMP280;10206;48.012;10.030;2023-02-08T11:42:42;96225.78;;;3.75
31528;BMP280;10206;48.012;10.030;2023-02-08T11:45:23;96215.53;;;3.79
31528;BMP280;10206;48.012;10.030;2023-02-08T11:47:50;96218.94;;;3.74
31528;BMP280;10206;48.012;10.030;2023-02-08T11:50:36;96210.34;;;3.39
31528;BMP280;10206;48.012;10.030;2023-02-08T11:53:06;96209.16;;;3.46
31528;BMP280;10206;48.012;10.030;2023-02-08T11:55:33;96202.06;;;3.48
31528;BMP280;10206;48.012;10.030;2023-02-08T11:58:26;96203.34;;;3.89
31528;BMP280;10206;48.012;10.030;2023-02-08T12:03:36;96193.22;;;3.42
31528;BMP280;10206;48.012;10.030;2023-02-08T12:09:02;96189.34;;;3.54
31528;BMP280;10206;48.012;10.030;2023-02-08T12:11:37;96190.88;;;3.61
31528;BMP280;10206;48.012;10.030;2023-02-08T12:14:50;96185.28;;;4.07
31528;BMP280;10206;48.012;10.030;2023-02-08T12:22:52;96154.34;;;3.65
31528;BMP280;10206;48.012;10.030;2023-02-08T12:28:26;96158.13;;;3.84
31528;BMP280;10206;48.012;10.030;2023-02-08T12:33:43;96150.06;;;3.42
31528;BMP280;10206;48.012;10.030;2023-02-08T12:38:55;96142.59;;;3.68
31528;BMP280;10206;48.012;10.030;2023-02-08T12:42:04;96147.19;;;4.80
31528;BMP280;10206;48.012;10.030;2023-02-08T12:45:11;96146.75;;;4.06
31528;BMP280;10206;48.012;10.030;2023-02-08T12:48:01;96140.28;;;4.74
31528;BMP280;10206;48.012;10.030;2023-02-08T12:50:37;96155.25;;;4.58
31528;BMP280;10206;48.012;10.030;2023-02-08T12:55:42;96153.34;;;5.03
31528;BMP280;10206;48.012;10.030;2023-02-08T12:58:33;96148.34;;;5.74
31528;BMP280;10206;48.012;10.030;2023-02-08T13:01:10;96151.09;;;5.24
31528;BMP280;10206;48.012;10.030;2023-02-08T13:06:17;96140.78;;;5.33
31528;BMP280;10206;48.012;10.030;2023-02-08T13:09:01;96133.19;;;5.37
31528;BMP280;10206;48.012;10.030;2023-02-08T13:11:46;96125.34;;;5.00
31528;BMP280;10206;48.012;10.030;2023-02-08T13:16:51;96115.44;;;5.42
31528;BMP280;10206;48.012;10.030;2023-02-08T13:19:41;96112.66;;;4.20
31528;BMP280;10206;48.012;10.030;2023-02-08T13:22:12;96107.06;;;4.34
31528;BMP280;10206;48.012;10.030;2023-02-08T13:24:42;96107.78;;;4.29
31528;BMP280;10206;48.012;10.030;2023-02-08T13:27:17;96108.09;;;4.65
31528;BMP280;10206;48.012;10.030;2023-02-08T13:29:48;96100.53;;;3.93
31528;BMP280;10206;48.012;10.030;2023-02-08T13:32:22;96093.66;;;3.98
31528;BMP280;10206;48.012;10.030;2023-02-08T13:35:06;96099.13;;;4.09
31528;BMP280;10206;48.012;10.030;2023-02-08T13:37:36;96088.72;;;3.85
31528;BMP280;10206;48.012;10.030;2023-02-08T13:40:21;96084.88;;;4.14
31528;BMP280;10206;48.012;10.030;2023-02-08T13:43:24;96083.66;;;4.04
31528;BMP280;10206;48.012;10.030;2023-02-08T13:45:51;96087.28;;;3.89
31528;BMP280;10206;48.012;10.030;2023-02-08T13:48:18;96091.06;;;3.61
31528;BMP280;10206;48.012;10.030;2023-02-08T13:50:54;96092.59;;;3.30
31528;BMP280;10206;48.012;10.030;2023-02-08T13:56:10;96089.09;;;3.24
31528;BMP280;10206;48.012;10.030;2023-02-08T14:01:18;96090.63;;;3.31
31528;BMP280;10206;48.012;10.030;2023-02-08T14:06:46;96098.31;;;3.44
31528;BMP280;10206;48.012;10.030;2023-02-08T14:12:30;96092.03;;;3.21
31528;BMP280;10206;48.012;10.030;2023-02-08T14:17:46;96086.66;;;3.21
31528;BMP280;10206;48.012;10.030;2023-02-08T14:20:32;96092.69;;;2.79
31528;BMP280;10206;48.012;10.030;2023-02-08T14:23:19;96097.59;;;2.81
31528;BMP280;10206;48.012;10.030;2023-02-08T14:25:48;96100.97;;;2.75
31528;BMP280;10206;48.012;10.030;2023-02-08T14:28:44;96101.94;;;3.04
31528;BMP280;10206;48.012;10.030;2023-02-08T14:31:11;96105.78;;;3.23
31528;BMP280;10206;48.012;10.030;2023-02-08T14:33:45;96097.53;;;2.75
31528;BMP280;10206;48.012;10.030;2023-02-08T14:36:29;96100.84;;;3.16
31528;BMP280;10206;48.012;10.030;2023-02-08T14:39:22;96096.81;;;3.06
31528;BMP280;10206;48.012;10.030;2023-02-08T14:41:57;96104.56;;;2.67
31528;BMP280;10206;48.012;10.030;2023-02-08T14:50:00;96102.63;;;2.67
31528;BMP280;10206;48.012;10.030;2023-02-08T14:52:29;96101.19;;;2.72
31528;BMP280;10206;48.012;10.030;2023-02-08T14:55:12;96107.50;;;2.95
31528;BMP280;10206;48.012;10.030;2023-02-08T14:57:40;96102.88;;;2.69
31528;BMP280;10206;48.012;10.030;2023-02-08T15:00:22;96104.63;;;3.04
31528;BMP280;10206;48.012;10.030;2023-02-08T15:02:50;96108.56;;;3.03
31528;BMP280;10206;48.012;10.030;2023-02-08T15:05:29;96103.94;;;2.78
31528;BMP280;10206;48.012;10.030;2023-02-08T15:08:00;96101.56;;;2.85
31528;BMP280;10206;48.012;10.030;2023-02-08T15:10:28;96098.13;;;3.16
31528;BMP280;10206;48.012;10.030;2023-02-08T15:13:03;96107.06;;;3.02
31528;BMP280;10206;48.012;10.030;2023-02-08T15:15:38;96106.03;;;2.94
31528;BMP280;10206;48.012;10.030;2023-02-08T15:18:06;96105.91;;;2.77
31528;BMP280;10206;48.012;10.030;2023-02-08T15:20:40;96107.97;;;2.93
31528;BMP280;10206;48.012;10.030;2023-02-08T15:23:23;96103.00;;;2.81
31528;BMP280;10206;48.012;10.030;2023-02-08T15:26:19;96098.78;;;2.48
31528;BMP280;10206;48.012;10.030;2023-02-08T15:28:46;96100.97;;;2.75
31528;BMP280;10206;48.012;10.030;2023-02-08T15:31:21;96093.25;;;2.63
31528;BMP280;10206;48.012;10.030;2023-02-08T15:33:47;96098.22;;;2.44
31528;BMP280;10206;48.012;10.030;2023-02-08T15:38:57;96093.56;;;2.19
31528;BMP280;10206;48.012;10.030;2023-02-08T15:41:30;96093.88;;;2.27
31528;BMP280;10206;48.012;10.030;2023-02-08T15:44:27;96097.25;;;2.22
31528;BMP280;10206;48.012;10.030;2023-02-08T15:46:59;96092.88;;;2.04
31528;BMP280;10206;48.012;10.030;2023-02-08T15:49:41;96085.91;;;2.38
31528;BMP280;10206;48.012;10.030;2023-02-08T15:52:16;96090.53;;;2.57
31528;BMP280;10206;48.012;10.030;2023-02-08T15:54:44;96091.91;;;2.47
31528;BMP280;10206;48.012;10.030;2023-02-08T15:59:57;96100.94;;;2.24
31528;BMP280;10206;48.012;10.030;2023-02-08T16:02:28;96102.97;;;2.09
31528;BMP280;10206;48.012;10.030;2023-02-08T16:04:55;96103.38;;;1.82
31528;BMP280;10206;48.012;10.030;2023-02-08T16:07:26;96111.91;;;2.21
31528;BMP280;10206;48.012;10.030;2023-02-08T16:09:54;96102.16;;;1.83
31528;BMP280;10206;48.012;10.030;2023-02-08T16:12:22;96108.88;;;1.93
31528;BMP280;10206;48.012;10.030;2023-02-08T16:14:49;96109.75;;;1.64
31528;BMP280;10206;48.012;10.030;2023-02-08T16:17:35;96125.38;;;1.80
31528;BMP280;10206;48.012;10.030;2023-02-08T16:20:21;96120.66;;;1.95